Time,TemperatureF,DewpointF,PressureIn,WindDirection,WindDirectionDegrees,WindSpeedMPH,WindSpeedGustMPH,Humidity,HourlyPrecipIn,Conditions,Clouds,dailyrainin,SolarRadiationWatts/m^2,SoftwareType,DateUTC
2013-05-26 00:01:00,49.0,38.0,-100.00,SE,130,1.0,5.0,65,-99.99,,,0.00,0.000000,,2013-05-26 06:01:00,
2013-05-26 00:11:00,49.0,38.0,-100.00,SE,130,1.0,5.0,65,-99.99,,,0.00,0.000000,,2013-05-26 06:11:00,
2013-05-26 00:32:00,45.0,38.0,-100.00,East,99,1.0,3.0,77,-99.99,,,0.00,0.000000,,2013-05-26 06:32:00,
2013-05-26 00:42:00,45.0,38.0,-100.00,East,99,1.0,3.0,77,-99.99,,,0.00,0.000000,,2013-05-26 06:42:00,
2013-05-26 00:52:00,45.0,38.0,-100.00,East,99,1.0,3.0,77,-99.99,,,0.00,0.000000,,2013-05-26 06:52:00,
2013-05-26 01:01:00,45.0,38.0,-100.00,East,99,1.0,3.0,77,-99.99,,,0.00,0.000000,,2013-05-26 07:01:00,
2013-05-26 01:11:00,45.0,38.0,-100.00,East,99,1.0,3.0,77,-99.99,,,0.00,0.000000,,2013-05-26 07:11:00,
2013-05-26 01:31:00,41.0,37.0,-100.00,SE,128,1.0,4.0,85,-99.99,,,0.00,0.000000,,2013-05-26 07:31:00,
2013-05-26 01:42:00,41.0,37.0,-100.00,SE,128,1.0,4.0,85,-99.99,,,0.00,0.000000,,2013-05-26 07:42:00,
2013-05-26 01:52:00,41.0,37.0,-100.00,SE,128,1.0,4.0,85,-99.99,,,0.00,0.000000,,2013-05-26 07:52:00,
2013-05-26 02:01:00,41.0,37.0,-100.00,SE,128,1.0,4.0,85,-99.99,,,0.00,0.000000,,2013-05-26 08:01:00,
2013-05-26 02:11:00,41.0,37.0,-100.00,SE,128,1.0,4.0,85,-99.99,,,0.00,0.000000,,2013-05-26 08:11:00,
2013-05-26 02:32:00,40.0,37.0,-100.00,East,90,0.0,1.0,88,-99.99,,,0.00,0.000000,,2013-05-26 08:32:00,
2013-05-26 02:42:00,40.0,37.0,-100.00,East,90,0.0,1.0,88,-99.99,,,0.00,0.000000,,2013-05-26 08:42:00,
2013-05-26 02:53:00,40.0,37.0,-100.00,East,90,0.0,1.0,88,-99.99,,,0.00,0.000000,,2013-05-26 08:53:00,
2013-05-26 03:01:00,40.0,37.0,-100.00,East,90,0.0,1.0,88,-99.99,,,0.00,0.000000,,2013-05-26 09:01:00,
2013-05-26 03:11:00,40.0,37.0,-100.00,East,90,0.0,1.0,88,-99.99,,,0.00,0.000000,,2013-05-26 09:11:00,
2013-05-26 03:33:00,38.0,35.0,-100.00,SSE,152,0.0,2.0,90,-99.99,,,0.00,0.000000,,2013-05-26 09:33:00,
2013-05-26 03:42:00,38.0,35.0,-100.00,SSE,152,0.0,2.0,90,-99.99,,,0.00,0.000000,,2013-05-26 09:42:00,
2013-05-26 03:53:00,38.0,35.0,-100.00,SSE,152,0.0,2.0,90,-99.99,,,0.00,0.000000,,2013-05-26 09:53:00,
2013-05-26 04:02:00,38.0,35.0,-100.00,SSE,152,0.0,2.0,90,-99.99,,,0.00,0.000000,,2013-05-26 10:02:00,
2013-05-26 04:12:00,38.0,35.0,-100.00,SSE,152,0.0,2.0,90,-99.99,,,0.00,0.000000,,2013-05-26 10:12:00,
2013-05-26 04:32:00,36.0,34.0,-100.00,SSE,151,2.0,4.0,91,-99.99,,,0.00,0.000000,,2013-05-26 10:32:00,
2013-05-26 04:42:00,36.0,34.0,-100.00,SSE,151,2.0,4.0,91,-99.99,,,0.00,0.000000,,2013-05-26 10:42:00,
2013-05-26 04:52:00,36.0,34.0,-100.00,SSE,151,2.0,4.0,91,-99.99,,,0.00,0.000000,,2013-05-26 10:52:00,
2013-05-26 05:02:00,36.0,34.0,-100.00,SSE,151,2.0,4.0,91,-99.99,,,0.00,0.000000,,2013-05-26 11:02:00,
2013-05-26 05:11:00,36.0,34.0,-100.00,SSE,151,2.0,4.0,91,-99.99,,,0.00,0.000000,,2013-05-26 11:11:00,
2013-05-26 05:32:00,37.0,34.0,-100.00,NW,304,0.0,1.0,88,-99.99,,,0.00,0.000000,,2013-05-26 11:32:00,
2013-05-26 05:42:00,37.0,34.0,-100.00,NW,304,0.0,1.0,88,-99.99,,,0.00,0.000000,,2013-05-26 11:42:00,
2013-05-26 05:52:00,37.0,34.0,-100.00,NW,304,0.0,1.0,88,-99.99,,,0.00,0.000000,,2013-05-26 11:52:00,
2013-05-26 06:01:00,37.0,34.0,-100.00,NW,304,0.0,1.0,88,-99.99,,,0.00,0.000000,,2013-05-26 12:01:00,
2013-05-26 06:11:00,37.0,34.0,-100.00,NW,304,0.0,1.0,88,-99.99,,,0.00,0.000000,,2013-05-26 12:11:00,
2013-05-26 06:32:00,37.0,35.0,-100.00,East,79,0.0,2.0,92,-99.99,,,0.00,11.740000,,2013-05-26 12:32:00,
2013-05-26 06:42:00,37.0,35.0,-100.00,East,79,0.0,2.0,92,-99.99,,,0.00,11.740000,,2013-05-26 12:42:00,
2013-05-26 06:52:00,37.0,35.0,-100.00,East,79,0.0,2.0,92,-99.99,,,0.00,11.740000,,2013-05-26 12:52:00,
2013-05-26 07:02:00,37.0,35.0,-100.00,East,79,0.0,2.0,92,-99.99,,,0.00,11.740000,,2013-05-26 13:02:00,
2013-05-26 07:11:00,37.0,35.0,-100.00,East,79,0.0,2.0,92,-99.99,,,0.00,11.740000,,2013-05-26 13:11:00,
2013-05-26 07:42:00,37.0,35.0,-100.00,North,359,0.0,3.0,93,-99.99,,,0.00,107.389999,,2013-05-26 13:42:00,
2013-05-26 07:52:00,37.0,35.0,-100.00,North,359,0.0,3.0,93,-99.99,,,0.00,107.389999,,2013-05-26 13:52:00,
2013-05-26 08:01:00,37.0,35.0,-100.00,North,359,0.0,3.0,93,-99.99,,,0.00,107.389999,,2013-05-26 14:01:00,
2013-05-26 08:11:00,37.0,35.0,-100.00,North,359,0.0,3.0,93,-99.99,,,0.00,107.389999,,2013-05-26 14:11:00,
2013-05-26 08:41:00,43.0,38.0,-100.00,WNW,285,1.0,3.0,81,-99.99,,,-99.99,271.140015,,2013-05-26 14:41:00,
2013-05-26 08:52:00,43.0,38.0,-100.00,WNW,285,1.0,3.0,81,-99.99,,,-99.99,271.140015,,2013-05-26 14:52:00,
2013-05-26 09:01:00,43.0,38.0,-100.00,WNW,285,1.0,3.0,81,-99.99,,,-99.99,271.140015,,2013-05-26 15:01:00,
2013-05-26 09:11:00,43.0,38.0,-100.00,WNW,285,1.0,3.0,81,-99.99,,,-99.99,271.140015,,2013-05-26 15:11:00,
2013-05-26 09:33:00,48.0,39.0,-100.00,WNW,282,2.0,6.0,69,-99.99,,,0.00,463.250000,,2013-05-26 15:33:00,
2013-05-26 09:43:00,48.0,39.0,-100.00,WNW,282,2.0,6.0,69,-99.99,,,0.00,463.250000,,2013-05-26 15:43:00,
2013-05-26 09:53:00,48.0,39.0,-100.00,WNW,282,2.0,6.0,69,-99.99,,,0.00,463.250000,,2013-05-26 15:53:00,
2013-05-26 10:03:00,48.0,39.0,-100.00,WNW,282,2.0,6.0,69,-99.99,,,0.00,463.250000,,2013-05-26 16:03:00,
2013-05-26 10:12:00,48.0,39.0,-100.00,WNW,282,2.0,6.0,69,-99.99,,,0.00,463.250000,,2013-05-26 16:12:00,
2013-05-26 10:33:00,52.0,40.0,-100.00,WNW,289,2.0,5.0,62,-99.99,,,0.00,660.940002,,2013-05-26 16:33:00,
2013-05-26 10:42:00,52.0,40.0,-100.00,WNW,289,2.0,5.0,62,-99.99,,,0.00,660.940002,,2013-05-26 16:42:00,
2013-05-26 10:53:00,52.0,40.0,-100.00,WNW,289,2.0,5.0,62,-99.99,,,0.00,660.940002,,2013-05-26 16:53:00,
2013-05-26 11:02:00,52.0,40.0,-100.00,WNW,289,2.0,5.0,62,-99.99,,,0.00,660.940002,,2013-05-26 17:02:00,
2013-05-26 11:11:00,52.0,40.0,-100.00,WNW,289,2.0,5.0,62,-99.99,,,0.00,660.940002,,2013-05-26 17:11:00,
2013-05-26 11:42:00,57.0,39.0,-100.00,NNW,341,2.0,4.0,50,-99.99,,,0.00,797.969971,,2013-05-26 17:42:00,
2013-05-26 11:52:00,57.0,39.0,-100.00,NNW,341,2.0,4.0,50,-99.99,,,0.00,797.969971,,2013-05-26 17:52:00,
2013-05-26 12:01:00,57.0,39.0,-100.00,NNW,341,2.0,4.0,50,-99.99,,,0.00,797.969971,,2013-05-26 18:01:00,
2013-05-26 12:12:00,57.0,39.0,-100.00,NNW,341,2.0,4.0,50,-99.99,,,0.00,797.969971,,2013-05-26 18:12:00,
2013-05-26 12:31:00,61.0,40.0,-100.00,NW,307,3.0,7.0,45,-99.99,,,0.00,884.429993,,2013-05-26 18:31:00,
2013-05-26 12:42:00,61.0,40.0,-100.00,NW,307,3.0,7.0,45,-99.99,,,0.00,884.429993,,2013-05-26 18:42:00,
2013-05-26 12:52:00,61.0,40.0,-100.00,NW,307,3.0,7.0,45,-99.99,,,0.00,884.429993,,2013-05-26 18:52:00,
2013-05-26 13:01:00,61.0,40.0,-100.00,NW,307,3.0,7.0,45,-99.99,,,0.00,884.429993,,2013-05-26 19:01:00,
2013-05-26 13:11:00,61.0,40.0,-100.00,NW,307,3.0,7.0,45,-99.99,,,0.00,884.429993,,2013-05-26 19:11:00,
2013-05-26 13:32:00,65.0,42.0,-100.00,NNW,333,2.0,8.0,43,-99.99,,,0.00,1008.789978,,2013-05-26 19:32:00,
2013-05-26 13:42:00,65.0,42.0,-100.00,NNW,333,2.0,8.0,43,-99.99,,,0.00,1008.789978,,2013-05-26 19:42:00,
2013-05-26 13:52:00,65.0,42.0,-100.00,NNW,333,2.0,8.0,43,-99.99,,,0.00,1008.789978,,2013-05-26 19:52:00,
2013-05-26 14:02:00,65.0,42.0,-100.00,NNW,333,2.0,8.0,43,-99.99,,,0.00,1008.789978,,2013-05-26 20:02:00,
2013-05-26 14:11:00,65.0,42.0,-100.00,NNW,333,2.0,8.0,43,-99.99,,,0.00,1008.789978,,2013-05-26 20:11:00,
2013-05-26 14:32:00,62.0,41.0,-100.00,West,272,3.0,5.0,46,-99.99,,,0.00,145.039993,,2013-05-26 20:32:00,
2013-05-26 14:41:00,62.0,41.0,-100.00,West,272,3.0,5.0,46,-99.99,,,0.00,145.039993,,2013-05-26 20:41:00,
2013-05-26 14:52:00,62.0,41.0,-100.00,West,272,3.0,5.0,46,-99.99,,,0.00,145.039993,,2013-05-26 20:52:00,
2013-05-26 15:01:00,62.0,41.0,-100.00,West,272,3.0,5.0,46,-99.99,,,0.00,145.039993,,2013-05-26 21:01:00,
2013-05-26 15:11:00,62.0,41.0,-100.00,West,272,3.0,5.0,46,-99.99,,,0.00,145.039993,,2013-05-26 21:11:00,
2013-05-26 15:43:00,59.0,42.0,-100.00,WSW,238,1.0,5.0,53,-99.99,,,0.00,234.880005,,2013-05-26 21:43:00,
2013-05-26 15:53:00,59.0,42.0,-100.00,WSW,238,1.0,5.0,53,-99.99,,,0.00,234.880005,,2013-05-26 21:53:00,
2013-05-26 16:02:00,59.0,42.0,-100.00,WSW,238,1.0,5.0,53,-99.99,,,0.00,234.880005,,2013-05-26 22:02:00,
2013-05-26 16:12:00,59.0,42.0,-100.00,WSW,238,1.0,5.0,53,-99.99,,,0.00,234.880005,,2013-05-26 22:12:00,
2013-05-26 16:33:00,58.0,43.0,-100.00,West,266,5.0,12.0,55,-99.99,,,0.00,159.800003,,2013-05-26 22:33:00,
2013-05-26 16:42:00,58.0,43.0,-100.00,West,266,5.0,12.0,55,-99.99,,,0.00,159.800003,,2013-05-26 22:42:00,
2013-05-26 16:53:00,58.0,43.0,-100.00,West,266,5.0,12.0,55,-99.99,,,0.00,159.800003,,2013-05-26 22:53:00,
2013-05-26 17:02:00,58.0,43.0,-100.00,West,266,5.0,12.0,55,-99.99,,,0.00,159.800003,,2013-05-26 23:02:00,
2013-05-26 17:11:00,58.0,43.0,-100.00,West,266,5.0,12.0,55,-99.99,,,0.00,159.800003,,2013-05-26 23:11:00,
2013-05-26 17:32:00,56.0,46.0,-100.00,SSE,152,6.0,11.0,68,-99.99,,,0.00,124.010002,,2013-05-26 23:32:00,
2013-05-26 17:43:00,56.0,46.0,-100.00,SSE,152,6.0,11.0,68,-99.99,,,0.00,124.010002,,2013-05-26 23:43:00,
2013-05-26 17:52:00,56.0,46.0,-100.00,SSE,152,6.0,11.0,68,-99.99,,,0.00,124.010002,,2013-05-26 23:52:00,
2013-05-26 18:02:00,56.0,46.0,-100.00,SSE,152,6.0,11.0,68,-99.99,,,0.00,124.010002,,2013-05-27 00:02:00,
2013-05-26 18:11:00,56.0,46.0,-100.00,SSE,152,6.0,11.0,68,-99.99,,,0.00,124.010002,,2013-05-27 00:11:00,
2013-05-26 19:31:00,56.0,45.0,-100.00,SSW,202,1.0,5.0,66,-99.99,,,0.00,174.100006,,2013-05-27 01:31:00,
2013-05-26 19:42:00,56.0,45.0,-100.00,SSW,202,1.0,5.0,66,-99.99,,,0.00,174.100006,,2013-05-27 01:42:00,
2013-05-26 19:52:00,56.0,45.0,-100.00,SSW,202,1.0,5.0,66,-99.99,,,0.00,174.100006,,2013-05-27 01:52:00,
2013-05-26 20:01:00,56.0,45.0,-100.00,SSW,202,1.0,5.0,66,-99.99,,,0.00,174.100006,,2013-05-27 02:01:00,
2013-05-26 20:11:00,56.0,45.0,-100.00,SSW,202,1.0,5.0,66,-99.99,,,0.00,174.100006,,2013-05-27 02:11:00,
2013-05-26 20:32:00,56.0,46.0,-100.00,SSE,158,3.0,5.0,67,-99.99,,,0.00,99.830002,,2013-05-27 02:32:00,
2013-05-26 20:42:00,56.0,46.0,-100.00,SSE,158,3.0,5.0,67,-99.99,,,0.00,99.830002,,2013-05-27 02:42:00,
2013-05-26 20:52:00,56.0,46.0,-100.00,SSE,158,3.0,5.0,67,-99.99,,,0.00,99.830002,,2013-05-27 02:52:00,
2013-05-26 21:02:00,56.0,46.0,-100.00,SSE,158,3.0,5.0,67,-99.99,,,0.00,99.830002,,2013-05-27 03:02:00,
2013-05-26 21:11:00,56.0,46.0,-100.00,SSE,158,3.0,5.0,67,-99.99,,,0.00,99.830002,,2013-05-27 03:11:00,
2013-05-26 21:42:00,53.0,47.0,-100.00,SE,139,1.0,4.0,81,-99.99,,,0.00,0.930000,,2013-05-27 03:42:00,
2013-05-26 21:53:00,53.0,47.0,-100.00,SE,139,1.0,4.0,81,-99.99,,,0.00,0.930000,,2013-05-27 03:53:00,
2013-05-26 22:02:00,53.0,47.0,-100.00,SE,139,1.0,4.0,81,-99.99,,,0.00,0.930000,,2013-05-27 04:02:00,
2013-05-26 22:12:00,53.0,47.0,-100.00,SE,139,1.0,4.0,81,-99.99,,,0.00,0.930000,,2013-05-27 04:12:00,
2013-05-26 22:42:00,50.0,47.0,-100.00,SE,135,5.0,9.0,92,-99.99,,,0.00,0.000000,,2013-05-27 04:42:00,
2013-05-26 22:52:00,50.0,47.0,-100.00,SE,135,5.0,9.0,92,-99.99,,,0.00,0.000000,,2013-05-27 04:52:00,
2013-05-26 23:02:00,50.0,47.0,-100.00,SE,135,5.0,9.0,92,-99.99,,,0.00,0.000000,,2013-05-27 05:02:00,
2013-05-26 23:12:00,50.0,47.0,-100.00,SE,135,5.0,9.0,92,-99.99,,,0.00,0.000000,,2013-05-27 05:12:00,
2013-05-26 23:32:00,50.0,47.0,-100.00,SSE,158,4.0,8.0,89,-99.99,,,0.00,0.000000,,2013-05-27 05:32:00,
2013-05-26 23:42:00,50.0,47.0,-100.00,SSE,158,4.0,8.0,89,-99.99,,,0.00,0.000000,,2013-05-27 05:42:00,
2013-05-26 23:52:00,50.0,47.0,-100.00,SSE,158,4.0,8.0,89,-99.99,,,0.00,0.000000,,2013-05-27 05:52:00,